Time;durP1;ratioP1;P1;durP2;ratioP2;P2;SDS_P1;SDS_P2;PMS_P1;PMS_P2;Temp;Humidity;BMP_temperature;BMP_pressure;BME280_temperature;BME280_humidity;BME280_pressure;Samples;Min_cycle;Max_cycle;Signal;HPM_P1;HPM_P2
2022/10/30 00:00:09;;;;;;;16.33;9.50;;;13.80;99.90;;;;;;4882728;29;20545;-73
2022/10/30 00:02:35;;;;;;;12.52;8.20;;;13.80;99.90;;;;;;4883055;29;20053;-73
2022/10/30 00:05:00;;;;;;;16.85;9.68;;;13.80;99.90;;;;;;4881839;29;20154;-73
2022/10/30 00:07:26;;;;;;;14.55;8.65;;;13.80;99.90;;;;;;4881833;29;20069;-73
2022/10/30 00:09:52;;;;;;;14.80;8.95;;;13.70;99.90;;;;;;4881936;29;20459;-73
2022/10/30 00:12:17;;;;;;;14.35;9.00;;;13.70;99.90;;;;;;4881707;29;20398;-73
2022/10/30 00:14:43;;;;;;;15.63;8.95;;;13.70;99.90;;;;;;4881866;29;20057;-73
2022/10/30 00:17:09;;;;;;;14.90;8.73;;;13.70;99.90;;;;;;4882697;29;20065;-73
2022/10/30 00:19:34;;;;;;;15.02;8.93;;;13.70;99.90;;;;;;4881119;29;20056;-73
2022/10/30 00:22:01;;;;;;;15.98;9.45;;;13.70;99.90;;;;;;4850928;29;20041;-73
2022/10/30 00:24:28;;;;;;;15.15;9.23;;;13.80;99.90;;;;;;4882661;29;20098;-72
2022/10/30 00:26:53;;;;;;;18.40;9.77;;;13.60;99.90;;;;;;4881686;29;20063;-72
2022/10/30 00:29:19;;;;;;;15.88;9.15;;;13.70;99.90;;;;;;4882529;29;20048;-73
2022/10/30 00:31:45;;;;;;;16.42;9.10;;;13.60;99.90;;;;;;4883053;29;20044;-73
2022/10/30 00:34:10;;;;;;;15.82;9.63;;;13.70;99.90;;;;;;4866106;29;20053;-73
2022/10/30 00:36:36;;;;;;;14.57;8.68;;;13.70;99.90;;;;;;4880468;29;20045;-73
2022/10/30 00:39:03;;;;;;;13.43;8.20;;;13.70;99.90;;;;;;4882440;29;20108;-73
2022/10/30 00:41:28;;;;;;;15.75;8.45;;;13.60;99.90;;;;;;4882495;29;20051;-73
2022/10/30 00:43:54;;;;;;;15.02;8.75;;;13.60;99.90;;;;;;4865921;29;20381;-73
2022/10/30 00:46:27;;;;;;;13.40;8.25;;;13.60;99.90;;;;;;4881144;29;20041;-72
2022/10/30 00:49:09;;;;;;;16.85;8.50;;;13.70;99.90;;;;;;4881664;29;20041;-73
2022/10/30 00:51:40;;;;;;;16.50;9.02;;;13.60;99.90;;;;;;4882240;29;20093;-73
2022/10/30 00:54:06;;;;;;;13.27;7.45;;;13.60;99.90;;;;;;4882356;29;20053;-73
2022/10/30 00:56:34;;;;;;;12.25;7.53;;;13.60;99.90;;;;;;4881154;29;20049;-73
2022/10/30 00:59:03;;;;;;;14.15;8.45;;;13.60;99.90;;;;;;4881146;29;20402;-72
2022/10/30 01:01:33;;;;;;;13.15;7.75;;;13.60;99.90;;;;;;4881405;29;20053;-72
2022/10/30 01:04:01;;;;;;;11.93;7.88;;;13.60;99.90;;;;;;4882067;29;20041;-72
2022/10/30 01:06:29;;;;;;;14.60;7.50;;;13.60;99.90;;;;;;4881971;29;20049;-72
2022/10/30 01:08:55;;;;;;;15.80;8.77;;;13.60;99.90;;;;;;4881800;29;20084;-73
2022/10/30 01:11:20;;;;;;;14.52;8.77;;;13.60;99.90;;;;;;4882280;29;20127;-72
2022/10/30 01:13:49;;;;;;;13.40;8.57;;;13.60;99.90;;;;;;4881274;29;20454;-73
2022/10/30 01:16:33;;;;;;;16.83;8.25;;;13.50;99.90;;;;;;4880833;29;20486;-73
2022/10/30 01:19:24;;;;;;;13.50;7.82;;;13.10;99.90;;;;;;4881188;29;20055;-73
2022/10/30 01:22:05;;;;;;;14.95;7.93;;;13.50;99.90;;;;;;4882004;29;20049;-73
2022/10/30 01:24:51;;;;;;;14.90;8.35;;;13.50;99.90;;;;;;4880540;29;20095;-73
2022/10/30 01:27:28;;;;;;;14.10;8.15;;;13.50;99.90;;;;;;4873447;29;20057;-72
2022/10/30 01:30:06;;;;;;;11.90;8.07;;;13.50;99.90;;;;;;4880368;29;20138;-72
2022/10/30 01:32:44;;;;;;;12.95;7.55;;;13.50;99.90;;;;;;4880813;29;20591;-72
2022/10/30 01:35:17;;;;;;;17.38;8.25;;;13.60;99.90;;;;;;4881474;29;20136;-73
2022/10/30 01:38:01;;;;;;;14.10;8.82;;;13.50;99.90;;;;;;4865178;29;20063;-73
2022/10/30 01:40:27;;;;;;;15.40;8.52;;;13.60;99.90;;;;;;4881846;29;20088;-73
2022/10/30 01:42:57;;;;;;;13.13;7.85;;;13.60;99.90;;;;;;4881333;29;20414;-73
2022/10/30 01:46:00;;;;;;;12.48;7.75;;;13.60;99.90;;;;;;4881039;29;20499;-73
2022/10/30 01:48:31;;;;;;;11.93;7.75;;;13.60;99.90;;;;;;4861658;29;20494;-73
2022/10/30 01:51:26;;;;;;;14.65;8.23;;;13.70;99.90;;;;;;4881074;29;20099;-72
2022/10/30 01:54:00;;;;;;;15.57;7.82;;;13.70;99.90;;;;;;4881219;29;20049;-72
2022/10/30 01:57:04;;;;;;;13.45;7.82;;;13.70;99.90;;;;;;4881085;29;20055;-72
2022/10/30 01:59:33;;;;;;;14.50;8.27;;;13.70;99.90;;;;;;4877761;29;20189;-72
2022/10/30 02:01:59;;;;;;;15.40;8.02;;;13.60;99.90;;;;;;4880999;29;20501;-72
2022/10/30 02:04:25;;;;;;;12.60;7.80;;;13.60;99.90;;;;;;4880687;29;20053;-72
2022/10/30 02:06:51;;;;;;;9.75;7.13;;;13.60;99.90;;;;;;4880150;29;20049;-72
2022/10/30 02:09:17;;;;;;;12.73;8.10;;;13.60;99.90;;;;;;4879629;29;20051;-72
2022/10/30 02:11:45;;;;;;;11.95;7.82;;;13.60;99.90;;;;;;4880829;29;20482;-72
2022/10/30 02:14:13;;;;;;;15.95;7.88;;;13.60;99.90;;;;;;4879759;29;20490;-72
2022/10/30 02:16:44;;;;;;;18.00;8.13;;;13.50;99.90;;;;;;4879420;29;20063;-72
2022/10/30 02:19:10;;;;;;;15.52;8.32;;;13.50;99.90;;;;;;4878787;29;20497;-72
2022/10/30 02:21:36;;;;;;;14.77;7.97;;;13.50;99.90;;;;;;4880844;29;20053;-72
2022/10/30 02:24:01;;;;;;;13.43;7.97;;;13.60;99.90;;;;;;4880642;29;20136;-72
2022/10/30 02:26:27;;;;;;;13.95;7.82;;;13.60;99.90;;;;;;4880533;29;20064;-72
2022/10/30 02:28:53;;;;;;;12.23;7.88;;;13.50;99.90;;;;;;4879326;29;20051;-72
2022/10/30 02:31:18;;;;;;;13.57;8.20;;;13.60;99.90;;;;;;4880515;29;20056;-73
2022/10/30 02:33:48;;;;;;;15.90;7.80;;;13.50;99.90;;;;;;4879376;29;20475;-73
2022/10/30 02:36:14;;;;;;;13.20;7.78;;;13.60;99.90;;;;;;4863924;29;20057;-73
2022/10/30 02:38:40;;;;;;;12.93;8.07;;;13.60;99.90;;;;;;4879397;29;20049;-72
2022/10/30 02:41:06;;;;;;;16.35;8.38;;;13.50;99.90;;;;;;4879220;29;20084;-72
2022/10/30 02:43:32;;;;;;;13.68;8.10;;;13.60;99.90;;;;;;4879956;29;20488;-72
2022/10/30 02:45:58;;;;;;;15.82;8.65;;;13.60;99.90;;;;;;4879162;29;20092;-73
2022/10/30 02:48:24;;;;;;;16.50;8.63;;;13.60;99.90;;;;;;4879653;29;20517;-76
2022/10/30 02:50:49;;;;;;;14.02;8.25;;;13.60;99.90;;;;;;4879239;29;20057;-72
2022/10/30 02:53:15;;;;;;;12.32;8.07;;;13.60;99.90;;;;;;4879456;29;20473;-73
2022/10/30 02:55:41;;;;;;;14.02;8.05;;;13.60;99.90;;;;;;4879835;29;20048;-73
2022/10/30 02:58:06;;;;;;;13.57;8.40;;;13.60;99.90;;;;;;4878463;29;20092;-73
2022/10/30 03:00:32;;;;;;;14.93;7.97;;;13.70;99.90;;;;;;4878840;29;20100;-73
2022/10/30 03:02:57;;;;;;;13.38;8.27;;;13.60;99.90;;;;;;4879004;29;20049;-73
2022/10/30 03:05:24;;;;;;;14.02;8.25;;;13.60;99.90;;;;;;4863557;29;20069;-72
2022/10/30 03:07:50;;;;;;;11.77;8.05;;;13.60;99.90;;;;;;4863318;29;20087;-73
2022/10/30 03:10:17;;;;;;;13.77;8.05;;;13.60;99.90;;;;;;4878787;29;20441;-73
2022/10/30 03:12:43;;;;;;;12.60;7.78;;;13.60;99.90;;;;;;4878785;29;20053;-73
2022/10/30 03:15:09;;;;;;;16.08;8.20;;;13.70;99.90;;;;;;4878917;29;20478;-72
2022/10/30 03:17:35;;;;;;;13.77;8.05;;;13.60;99.90;;;;;;4880025;29;20057;-72
2022/10/30 03:20:01;;;;;;;13.07;8.20;;;13.60;99.90;;;;;;4878238;29;20136;-72
2022/10/30 03:22:26;;;;;;;14.27;7.90;;;13.60;99.90;;;;;;4863355;29;20044;-72
2022/10/30 03:24:52;;;;;;;18.48;8.30;;;13.50;99.90;;;;;;4878525;29;20101;-73
2022/10/30 03:27:18;;;;;;;15.05;7.45;;;13.50;99.90;;;;;;4879444;29;20044;-72
2022/10/30 03:29:43;;;;;;;13.13;6.82;;;13.50;99.90;;;;;;4878613;29;20053;-72
2022/10/30 03:32:10;;;;;;;14.60;8.13;;;13.50;99.90;;;;;;4879681;29;20384;-72
2022/10/30 03:34:36;;;;;;;13.65;7.93;;;13.80;99.90;;;;;;4879691;29;20064;-72
2022/10/30 03:37:03;;;;;;;12.38;7.60;;;13.40;99.90;;;;;;4878521;29;20057;-72
2022/10/30 03:39:28;;;;;;;14.20;8.13;;;13.50;99.90;;;;;;4878459;29;20049;-72
2022/10/30 03:41:54;;;;;;;12.45;7.85;;;13.40;99.90;;;;;;4878435;29;20059;-72
2022/10/30 03:44:20;;;;;;;16.23;8.43;;;13.40;99.90;;;;;;4879589;29;20049;-72
2022/10/30 03:46:45;;;;;;;14.77;7.95;;;13.40;99.90;;;;;;4863163;29;20053;-72
2022/10/30 03:49:11;;;;;;;15.05;8.02;;;13.40;99.90;;;;;;4878670;29;20054;-72
2022/10/30 03:51:37;;;;;;;11.93;7.60;;;13.40;99.90;;;;;;4879700;29;20053;-72
2022/10/30 03:54:02;;;;;;;11.05;7.20;;;13.50;99.90;;;;;;4879567;29;20539;-72
2022/10/30 03:56:28;;;;;;;12.75;7.97;;;13.40;99.90;;;;;;4863191;29;20125;-73
2022/10/30 03:58:54;;;;;;;14.15;8.30;;;13.40;99.90;;;;;;4878591;29;20087;-72
2022/10/30 04:01:19;;;;;;;12.52;7.88;;;13.50;99.90;;;;;;4878459;29;20049;-73
2022/10/30 04:03:45;;;;;;;13.55;7.57;;;13.40;99.90;;;;;;4863206;29;20053;-72
2022/10/30 04:06:11;;;;;;;12.68;7.93;;;13.40;99.90;;;;;;4878459;29;20085;-72
2022/10/30 04:08:36;;;;;;;11.18;7.70;;;13.40;99.90;;;;;;4879295;29;20053;-73
2022/10/30 04:11:03;;;;;;;12.15;8.05;;;13.30;99.90;;;;;;4881602;29;20080;-72
2022/10/30 04:13:28;;;;;;;13.18;7.30;;;13.30;99.90;;;;;;4882451;29;20527;-73
2022/10/30 04:15:54;;;;;;;12.48;7.93;;;13.30;99.90;;;;;;4882827;29;20132;-73
2022/10/30 04:18:20;;;;;;;12.90;7.70;;;13.30;99.90;;;;;;4881330;29;20060;-72
2022/10/30 04:20:46;;;;;;;13.18;7.65;;;13.30;99.90;;;;;;4881096;29;20056;-72
2022/10/30 04:23:17;;;;;;;12.70;7.55;;;13.30;99.90;;;;;;4881610;29;20202;-72
2022/10/30 04:25:43;;;;;;;12.23;7.50;;;13.30;99.90;;;;;;4882667;29;20045;-72
2022/10/30 04:28:09;;;;;;;16.38;7.47;;;13.30;99.90;;;;;;4881808;29;20506;-72
2022/10/30 04:30:35;;;;;;;14.10;7.50;;;13.40;99.90;;;;;;4881930;29;20519;-72
2022/10/30 04:33:04;;;;;;;12.30;7.93;;;13.30;99.90;;;;;;4882494;29;20137;-72
2022/10/30 04:35:33;;;;;;;14.30;8.20;;;13.30;99.90;;;;;;4882135;29;20389;-72
2022/10/30 04:38:01;;;;;;;16.40;8.15;;;13.40;99.90;;;;;;4881287;29;20488;-72
2022/10/30 04:40:29;;;;;;;14.35;8.52;;;13.30;99.90;;;;;;4882424;29;20053;-72
2022/10/30 04:42:55;;;;;;;14.88;8.30;;;13.40;99.90;;;;;;4881760;29;20148;-72
2022/10/30 04:45:21;;;;;;;12.35;8.05;;;13.40;99.90;;;;;;4880769;29;20105;-73
2022/10/30 04:47:47;;;;;;;12.70;7.97;;;13.40;99.90;;;;;;4881251;29;20427;-72
2022/10/30 04:50:13;;;;;;;18.35;9.43;;;13.40;99.90;;;;;;4880513;29;20049;-72
2022/10/30 04:52:39;;;;;;;19.10;8.85;;;13.30;99.90;;;;;;4881099;29;20061;-72
2022/10/30 04:55:05;;;;;;;16.60;8.88;;;13.40;99.90;;;;;;4882102;29;20367;-72
2022/10/30 04:57:31;;;;;;;15.48;8.68;;;13.40;99.90;;;;;;4882159;29;20045;-72
2022/10/30 04:59:57;;;;;;;14.82;9.10;;;13.30;99.90;;;;;;4882085;29;20052;-72
2022/10/30 05:02:23;;;;;;;15.90;8.18;;;13.30;99.90;;;;;;4882008;29;20052;-72
2022/10/30 05:04:49;;;;;;;14.15;8.70;;;13.30;99.90;;;;;;4882128;29;20060;-72
2022/10/30 05:07:16;;;;;;;13.55;8.48;;;13.30;99.90;;;;;;4880928;29;20045;-72
2022/10/30 05:09:42;;;;;;;13.82;8.60;;;13.30;99.90;;;;;;4865181;29;20092;-72
2022/10/30 05:12:09;;;;;;;14.40;8.40;;;13.40;99.90;;;;;;4881888;29;20083;-73
2022/10/30 05:14:35;;;;;;;13.85;9.35;;;13.30;99.90;;;;;;4881835;29;20053;-72
2022/10/30 05:17:01;;;;;;;12.13;8.10;;;13.30;99.90;;;;;;4881602;29;20394;-73
2022/10/30 05:19:27;;;;;;;15.02;8.65;;;13.40;99.90;;;;;;4880984;29;20049;-72
2022/10/30 05:21:52;;;;;;;15.57;9.68;;;13.30;99.90;;;;;;4895661;29;20053;-73
2022/10/30 05:24:18;;;;;;;13.63;8.07;;;13.20;99.90;;;;;;4880481;29;20048;-72
2022/10/30 05:26:45;;;;;;;15.25;8.43;;;13.30;99.90;;;;;;4881332;29;20056;-72
2022/10/30 05:29:11;;;;;;;13.98;8.15;;;13.40;99.90;;;;;;4880533;29;20509;-72
2022/10/30 05:31:36;;;;;;;15.73;8.30;;;13.30;99.90;;;;;;4881525;29;20053;-72
2022/10/30 05:34:02;;;;;;;17.50;9.43;;;13.20;99.90;;;;;;4881437;29;20049;-73
2022/10/30 05:36:28;;;;;;;15.10;8.13;;;13.20;99.90;;;;;;4880319;29;20056;-72
2022/10/30 05:38:53;;;;;;;17.02;8.82;;;13.10;99.90;;;;;;4881318;29;20053;-73
2022/10/30 05:41:19;;;;;;;17.00;8.90;;;13.30;99.90;;;;;;4881306;29;20101;-72
2022/10/30 05:43:45;;;;;;;16.45;8.80;;;13.20;99.90;;;;;;4881735;29;20053;-72
2022/10/30 05:46:11;;;;;;;12.90;8.32;;;13.10;99.90;;;;;;4880212;29;20071;-73
2022/10/30 05:48:36;;;;;;;14.23;8.63;;;13.20;99.90;;;;;;4881208;29;20049;-72
2022/10/30 05:51:03;;;;;;;14.18;8.43;;;13.20;99.90;;;;;;4879611;29;20053;-72
2022/10/30 05:53:29;;;;;;;15.88;8.70;;;13.10;99.90;;;;;;4881142;29;20057;-72
2022/10/30 05:55:56;;;;;;;15.20;8.27;;;13.10;99.90;;;;;;4881112;29;20387;-72
2022/10/30 05:58:22;;;;;;;12.52;7.88;;;13.10;99.90;;;;;;4879893;29;20513;-72
2022/10/30 06:00:48;;;;;;;14.95;8.30;;;13.10;99.90;;;;;;4879947;29;20446;-72
2022/10/30 06:03:14;;;;;;;14.20;8.27;;;13.10;99.90;;;;;;4881093;29;20049;-72
2022/10/30 06:05:42;;;;;;;12.32;7.95;;;13.10;99.90;;;;;;4881113;29;20491;-72
2022/10/30 06:08:08;;;;;;;14.52;8.32;;;13.00;99.90;;;;;;4880085;29;20053;-72
2022/10/30 06:10:35;;;;;;;13.32;8.95;;;13.00;99.90;;;;;;4880840;29;20498;-72
2022/10/30 06:13:03;;;;;;;14.55;9.45;;;13.00;99.90;;;;;;4880875;29;20057;-72
2022/10/30 06:15:29;;;;;;;16.42;8.43;;;13.20;99.90;;;;;;4880896;29;20048;-72
2022/10/30 06:17:56;;;;;;;14.15;8.77;;;13.00;99.90;;;;;;4880606;29;20104;-72
2022/10/30 06:20:25;;;;;;;19.38;9.68;;;13.00;99.90;;;;;;4880182;29;20053;-72
2022/10/30 06:23:01;;;;;;;15.13;8.70;;;13.00;99.90;;;;;;4880644;29;20045;-72
2022/10/30 06:25:29;;;;;;;12.23;8.00;;;13.00;99.90;;;;;;4879407;29;20401;-72
2022/10/30 06:27:55;;;;;;;18.48;9.88;;;13.00;99.90;;;;;;4880390;29;20056;-73
2022/10/30 06:30:21;;;;;;;15.30;9.50;;;13.00;99.90;;;;;;4879390;29;20049;-72
2022/10/30 06:32:47;;;;;;;13.65;8.57;;;13.00;99.90;;;;;;4879449;29;20447;-72
2022/10/30 06:35:13;;;;;;;18.83;9.32;;;13.00;99.90;;;;;;4879183;29;20452;-72
2022/10/30 06:37:46;;;;;;;16.08;8.82;;;13.10;99.90;;;;;;4879086;29;20040;-73
2022/10/30 06:40:12;;;;;;;;;;;13.00;99.90;;;;;;4864655;29;20465;-72
2022/10/30 06:42:42;;;;;;;16.67;9.07;;;13.00;99.90;;;;;;4879417;29;19974;-72
2022/10/30 06:45:08;;;;;;;16.48;9.02;;;13.10;99.90;;;;;;4880681;29;20096;-72
2022/10/30 06:47:34;;;;;;;14.27;8.43;;;12.90;99.90;;;;;;4879044;29;20127;-72
2022/10/30 06:50:01;;;;;;;14.98;8.88;;;12.90;99.90;;;;;;4878664;29;20123;-72
2022/10/30 06:52:26;;;;;;;20.05;9.23;;;13.10;99.90;;;;;;4880032;29;20498;-72
2022/10/30 06:54:52;;;;;;;16.52;9.18;;;13.00;99.90;;;;;;4879797;29;20069;-73
2022/10/30 06:57:17;;;;;;;14.25;9.07;;;13.00;99.90;;;;;;4879147;29;20053;-72
2022/10/30 06:59:43;;;;;;;16.92;8.52;;;13.10;99.90;;;;;;4863688;29;20136;-72
2022/10/30 07:02:09;;;;;;;15.93;8.80;;;13.00;99.90;;;;;;4878805;29;20041;-72
2022/10/30 07:04:35;;;;;;;21.17;10.50;;;13.10;99.90;;;;;;4879413;29;20397;-72
2022/10/30 07:07:01;;;;;;;14.48;8.60;;;13.00;99.90;;;;;;4880046;29;20049;-72
2022/10/30 07:09:26;;;;;;;15.80;8.48;;;13.00;99.90;;;;;;4878804;29;20053;-72
2022/10/30 07:11:52;;;;;;;17.02;9.48;;;13.00;99.90;;;;;;4878827;29;20057;-72
2022/10/30 07:14:18;;;;;;;16.65;9.45;;;13.00;99.90;;;;;;4880173;29;20084;-72
2022/10/30 07:16:43;;;;;;;14.07;9.00;;;13.00;99.90;;;;;;4878747;29;20053;-72
2022/10/30 07:19:09;;;;;;;13.95;9.30;;;13.00;99.90;;;;;;4877874;29;20288;-72
2022/10/30 07:21:35;;;;;;;15.77;9.27;;;13.00;99.90;;;;;;4879372;29;20061;-72
2022/10/30 07:24:00;;;;;;;20.13;10.00;;;13.10;99.90;;;;;;4879182;29;20088;-72
2022/10/30 07:26:26;;;;;;;14.32;9.95;;;13.10;99.90;;;;;;4880025;29;20501;-72
2022/10/30 07:28:52;;;;;;;17.25;9.40;;;13.10;99.90;;;;;;4879612;29;20068;-72
2022/10/30 07:31:17;;;;;;;16.27;9.30;;;13.10;99.90;;;;;;4879113;29;20049;-72
2022/10/30 07:33:43;;;;;;;13.10;8.60;;;13.10;99.90;;;;;;4878775;29;20479;-72
2022/10/30 07:36:09;;;;;;;16.15;9.30;;;13.20;99.90;;;;;;4878739;29;20384;-72
2022/10/30 07:38:35;;;;;;;17.25;9.48;;;13.10;99.90;;;;;;4879741;29;20474;-72
2022/10/30 07:41:00;;;;;;;12.00;8.50;;;13.10;99.90;;;;;;4878794;29;20479;-72
2022/10/30 07:43:26;;;;;;;18.02;9.55;;;13.10;99.90;;;;;;4878479;29;20051;-72
2022/10/30 07:45:51;;;;;;;15.85;9.60;;;13.20;99.90;;;;;;4881515;29;20049;-72
2022/10/30 07:48:17;;;;;;;15.70;9.30;;;13.20;99.90;;;;;;4883384;29;20048;-72
2022/10/30 07:50:43;;;;;;;15.88;10.10;;;13.20;99.90;;;;;;4866393;29;20681;-72
2022/10/30 07:53:08;;;;;;;14.70;8.93;;;13.20;99.90;;;;;;4882026;29;20049;-72
2022/10/30 07:55:34;;;;;;;16.73;9.65;;;13.20;99.90;;;;;;4882096;29;20077;-72
2022/10/30 07:58:00;;;;;;;21.40;10.48;;;13.30;99.90;;;;;;4883178;29;20080;-72
2022/10/30 08:00:25;;;;;;;17.63;9.55;;;13.30;99.90;;;;;;4882185;29;20041;-72
2022/10/30 08:02:55;;;;;;;17.95;10.30;;;13.30;99.90;;;;;;4866633;29;20454;-72
2022/10/30 08:05:21;;;;;;;17.00;9.25;;;13.30;99.90;;;;;;4882117;29;20493;-72
2022/10/30 08:07:47;;;;;;;16.48;9.48;;;13.40;99.90;;;;;;4882897;29;20109;-72
2022/10/30 08:10:13;;;;;;;16.08;9.52;;;13.30;99.90;;;;;;4882924;29;20136;-72
2022/10/30 08:12:40;;;;;;;16.35;10.02;;;13.40;99.90;;;;;;4896945;29;20097;-72
2022/10/30 08:15:07;;;;;;;18.95;9.93;;;13.40;99.90;;;;;;4881715;29;20053;-72
2022/10/30 08:17:39;;;;;;;17.88;9.60;;;13.40;99.90;;;;;;4882704;29;20072;-72
2022/10/30 08:20:06;;;;;;;15.77;9.35;;;13.50;99.90;;;;;;4881645;29;20065;-72
2022/10/30 08:22:31;;;;;;;15.38;9.48;;;13.50;99.90;;;;;;4866400;29;20052;-72
2022/10/30 08:24:57;;;;;;;17.52;9.88;;;13.70;99.90;;;;;;4881550;29;20045;-72
2022/10/30 08:27:23;;;;;;;15.77;9.60;;;13.60;99.90;;;;;;4882642;29;20056;-72
2022/10/30 08:29:48;;;;;;;16.60;9.80;;;13.60;99.90;;;;;;4882712;29;20052;-72
2022/10/30 08:32:14;;;;;;;20.17;10.30;;;13.60;99.90;;;;;;4881377;29;20394;-71
2022/10/30 08:34:40;;;;;;;22.65;10.50;;;13.70;99.90;;;;;;4881593;29;20135;-72
2022/10/30 08:37:06;;;;;;;18.00;9.57;;;13.70;99.90;;;;;;4881602;29;20077;-71
2022/10/30 08:39:32;;;;;;;17.98;10.13;;;13.70;99.90;;;;;;4881477;29;20455;-71
2022/10/30 08:41:58;;;;;;;16.85;10.45;;;13.80;99.90;;;;;;4882503;29;20184;-72
2022/10/30 08:44:24;;;;;;;15.45;10.90;;;13.80;99.90;;;;;;4881201;29;20064;-71
2022/10/30 08:46:50;;;;;;;16.75;9.93;;;13.80;99.90;;;;;;4882339;29;20053;-72
2022/10/30 08:49:16;;;;;;;17.33;10.13;;;13.90;99.90;;;;;;4880642;29;20056;-72
2022/10/30 08:51:41;;;;;;;18.35;9.85;;;13.90;99.90;;;;;;4865754;29;20320;-71
2022/10/30 08:54:09;;;;;;;16.00;10.60;;;14.00;99.90;;;;;;4881957;29;20045;-72
2022/10/30 08:56:35;;;;;;;16.38;10.43;;;14.00;99.90;;;;;;4881082;29;20518;-71
2022/10/30 08:59:00;;;;;;;18.13;10.60;;;14.00;99.90;;;;;;4882238;29;20140;-70
2022/10/30 09:01:26;;;;;;;17.15;10.35;;;14.10;99.90;;;;;;4865862;29;20073;-71
2022/10/30 09:03:51;;;;;;;17.65;10.20;;;14.10;99.90;;;;;;4881479;29;20052;-71
2022/10/30 09:06:17;;;;;;;17.13;10.82;;;14.20;99.90;;;;;;4882177;29;20049;-71
2022/10/30 09:08:44;;;;;;;17.20;10.55;;;14.20;99.90;;;;;;4880912;29;20049;-71
2022/10/30 09:11:10;;;;;;;20.58;12.10;;;14.20;99.90;;;;;;4880482;29;20049;-72
2022/10/30 09:13:35;;;;;;;19.38;10.20;;;14.20;99.90;;;;;;4880643;29;20077;-72
2022/10/30 09:16:02;;;;;;;16.08;10.65;;;14.30;99.90;;;;;;4881583;29;20453;-73
2022/10/30 09:18:28;;;;;;;15.80;11.50;;;14.30;99.90;;;;;;4881518;29;20041;-73
2022/10/30 09:20:54;;;;;;;19.35;12.20;;;14.40;99.90;;;;;;4881000;29;20117;-73
2022/10/30 09:23:20;;;;;;;20.02;11.52;;;14.40;99.90;;;;;;4879910;29;20128;-73
2022/10/30 09:25:46;;;;;;;19.33;11.85;;;14.50;99.90;;;;;;4881344;29;20076;-74
2022/10/30 09:28:11;;;;;;;19.55;12.52;;;14.50;99.90;;;;;;4881809;29;20048;-71
2022/10/30 09:30:37;;;;;;;21.50;11.60;;;14.40;99.90;;;;;;4881061;29;20061;-71
2022/10/30 09:33:03;;;;;;;17.40;11.93;;;14.50;99.90;;;;;;4865373;29;20526;-71
2022/10/30 09:35:29;;;;;;;20.35;12.70;;;14.60;99.90;;;;;;4880477;29;20052;-71
2022/10/30 09:37:55;;;;;;;22.23;12.60;;;14.70;99.90;;;;;;4880443;29;20048;-71
2022/10/30 09:40:56;;;;;;;22.08;12.60;;;14.70;99.90;;;;;;4881500;29;20052;-71
2022/10/30 09:43:40;;;;;;;21.90;11.90;;;14.70;99.90;;;;;;4880603;29;20059;-71
2022/10/30 09:46:40;;;;;;;18.30;11.82;;;14.80;99.90;;;;;;4880601;29;20055;-71
2022/10/30 09:49:40;;;;;;;20.02;12.10;;;14.80;99.90;;;;;;4881112;29;20045;-76
2022/10/30 09:52:20;;;;;;;18.88;13.00;;;14.90;99.90;;;;;;4880800;29;20045;-73
2022/10/30 09:55:07;;;;;;;19.33;13.23;;;14.90;99.90;;;;;;4878054;29;20056;-73
2022/10/30 09:58:01;;;;;;;22.98;13.70;;;15.00;99.90;;;;;;4879483;29;20533;-72
2022/10/30 10:00:37;;;;;;;22.40;13.52;;;15.10;99.90;;;;;;4880006;29;20101;-73
2022/10/30 10:03:20;;;;;;;19.58;12.73;;;15.10;99.90;;;;;;4878422;29;20196;-73
2022/10/30 10:05:54;;;;;;;19.55;11.85;;;15.10;99.90;;;;;;4873893;29;20045;-71
2022/10/30 10:08:36;;;;;;;23.77;12.65;;;15.20;99.90;;;;;;4879969;29;20041;-70
2022/10/30 10:11:18;;;;;;;23.35;12.82;;;15.20;99.90;;;;;;4877936;29;20482;-71
2022/10/30 10:13:50;;;;;;;22.77;13.18;;;15.30;99.90;;;;;;4871078;29;20052;-71
2022/10/30 10:16:21;;;;;;;22.30;13.13;;;15.40;99.90;;;;;;4879236;29;21472;-71
2022/10/30 10:18:53;;;;;;;22.33;11.77;;;15.40;99.90;;;;;;4878544;29;20057;-71
2022/10/30 10:21:24;;;;;;;22.98;13.30;;;15.40;99.90;;;;;;4879548;29;20052;-71
2022/10/30 10:23:54;;;;;;;20.35;13.18;;;15.50;99.90;;;;;;4879213;29;20081;-73
2022/10/30 10:26:25;;;;;;;19.65;12.52;;;15.50;99.90;;;;;;4879050;29;20052;-71
2022/10/30 10:28:59;;;;;;;22.33;13.48;;;15.60;99.90;;;;;;4863678;29;20041;-71
2022/10/30 10:31:51;;;;;;;21.92;12.32;;;15.60;99.90;;;;;;4877651;29;20063;-71
2022/10/30 10:34:34;;;;;;;20.02;13.77;;;15.80;99.90;;;;;;4879597;29;20461;-71
2022/10/30 10:37:12;;;;;;;19.20;11.40;;;15.80;99.90;;;;;;4875900;29;20044;-71
2022/10/30 10:40:02;;;;;;;17.95;11.68;;;15.90;99.90;;;;;;4862618;29;20057;-71
2022/10/30 10:42:46;;;;;;;20.60;12.65;;;16.00;99.90;;;;;;4876472;29;20113;-71
2022/10/30 10:45:30;;;;;;;19.92;12.60;;;16.00;99.90;;;;;;4878186;29;20461;-71
2022/10/30 10:48:29;;;;;;;22.13;12.50;;;16.10;99.90;;;;;;4877497;29;20052;-71
2022/10/30 10:51:01;;;;;;;24.50;15.38;;;16.20;99.90;;;;;;4877120;29;20081;-71
2022/10/30 10:53:37;;;;;;;27.15;14.70;;;16.30;99.90;;;;;;4876269;29;20049;-71
2022/10/30 10:56:03;;;;;;;24.23;14.60;;;16.30;99.90;;;;;;4876908;29;20104;-71
2022/10/30 10:58:49;;;;;;;22.00;14.65;;;16.40;99.90;;;;;;4878768;29;20053;-71
2022/10/30 11:01:21;;;;;;;22.00;13.63;;;16.50;99.90;;;;;;4877662;29;20136;-70
2022/10/30 11:04:01;;;;;;;23.73;14.50;;;16.40;99.90;;;;;;4877086;29;20045;-71
2022/10/30 11:06:32;;;;;;;24.00;13.82;;;16.50;99.90;;;;;;4875543;29;20053;-71
2022/10/30 11:09:10;;;;;;;19.92;13.27;;;16.50;99.90;;;;;;4878858;29;20041;-71
2022/10/30 11:11:36;;;;;;;19.80;12.63;;;16.50;99.90;;;;;;4878715;29;20101;-70
2022/10/30 11:14:16;;;;;;;19.25;11.60;;;16.60;99.90;;;;;;4875190;29;20037;-71
2022/10/30 11:17:10;;;;;;;23.90;12.73;;;16.60;99.90;;;;;;4877897;29;20442;-70
2022/10/30 11:19:36;;;;;;;16.30;9.93;;;16.60;99.90;;;;;;4876076;29;20545;-70
2022/10/30 11:22:07;;;;;;;22.10;10.60;;;16.70;99.90;;;;;;4875916;29;20096;-71
2022/10/30 11:24:34;;;;;;;16.40;10.88;;;16.70;99.90;;;;;;4877646;29;20087;-71
2022/10/30 11:27:24;;;;;;;15.35;10.27;;;16.70;99.90;;;;;;4878709;29;20052;-71
2022/10/30 11:30:04;;;;;;;17.60;10.50;;;16.80;99.90;;;;;;4876804;29;20123;-71
2022/10/30 11:32:32;;;;;;;15.15;10.30;;;16.80;99.90;;;;;;4873194;29;20072;-70
2022/10/30 11:35:07;;;;;;;18.38;11.93;;;16.90;99.90;;;;;;4879019;29;20372;-70
2022/10/30 11:37:34;;;;;;;19.48;12.18;;;16.90;99.90;;;;;;4878825;29;20057;-70
2022/10/30 11:40:06;;;;;;;19.08;12.88;;;16.90;99.90;;;;;;4863653;29;20095;-70
2022/10/30 11:42:33;;;;;;;17.48;10.43;;;16.90;99.90;;;;;;4880002;29;20056;-70
2022/10/30 11:44:59;;;;;;;16.27;10.40;;;17.00;99.90;;;;;;4878898;29;20127;-70
2022/10/30 11:47:33;;;;;;;16.08;10.98;;;17.00;99.90;;;;;;4863311;29;20053;-71
2022/10/30 11:50:01;;;;;;;17.67;11.30;;;17.00;99.90;;;;;;4878405;29;20076;-71
2022/10/30 11:52:27;;;;;;;16.35;11.10;;;17.00;99.90;;;;;;4863073;29;20136;-70
2022/10/30 11:55:01;;;;;;;16.15;11.48;;;17.00;99.90;;;;;;4878927;29;20181;-70
2022/10/30 11:57:41;;;;;;;18.83;10.77;;;17.10;99.90;;;;;;4879452;29;20486;-71
2022/10/30 12:00:17;;;;;;;20.70;11.32;;;17.10;99.90;;;;;;4863520;29;20061;-71
2022/10/30 12:02:45;;;;;;;15.82;10.00;;;17.20;99.90;;;;;;4878563;29;20049;-71
2022/10/30 12:05:36;;;;;;;16.67;9.93;;;17.20;99.90;;;;;;4863127;29;20105;-70
2022/10/30 12:08:08;;;;;;;13.52;8.05;;;17.20;99.90;;;;;;4878350;29;20110;-70
2022/10/30 12:10:40;;;;;;;17.70;10.03;;;17.20;99.90;;;;;;4879551;29;20049;-70
2022/10/30 12:13:13;;;;;;;15.00;8.98;;;17.30;99.90;;;;;;4878771;29;20060;-71
2022/10/30 12:15:39;;;;;;;13.77;8.00;;;17.30;99.90;;;;;;4879607;29;20063;-71
2022/10/30 12:18:07;;;;;;;11.90;7.28;;;17.30;99.90;;;;;;4879638;29;20057;-70
2022/10/30 12:20:36;;;;;;;15.43;7.70;;;17.40;99.90;;;;;;4877990;29;20144;-70
2022/10/30 12:23:24;;;;;;;14.77;8.80;;;17.30;99.90;;;;;;4879479;29;20486;-70
2022/10/30 12:25:53;;;;;;;17.73;9.25;;;17.40;99.90;;;;;;4879698;29;20049;-71
2022/10/30 12:28:21;;;;;;;16.08;9.30;;;17.30;99.90;;;;;;4861030;29;20048;-71
2022/10/30 12:31:12;;;;;;;16.02;9.57;;;17.40;99.90;;;;;;4878615;29;20580;-71
2022/10/30 12:33:49;;;;;;;15.90;9.52;;;17.40;99.90;;;;;;4880415;29;20125;-71
2022/10/30 12:36:43;;;;;;;15.32;8.60;;;17.50;99.90;;;;;;4879044;29;20049;-71
2022/10/30 12:39:15;;;;;;;16.77;7.65;;;17.60;99.90;;;;;;4872957;29;20056;-71
2022/10/30 12:41:53;;;;;;;15.82;7.68;;;17.80;99.90;;;;;;4882236;29;20057;-71
2022/10/30 12:44:29;;;;;;;14.70;7.93;;;17.70;99.90;;;;;;4863559;29;20061;-71